Terminal Aerodrome Forecast
Issued by NWS

Home | Current Version | Previous Version | Text Only | Print | Product List | Glossary On
Versions: 1 2 3 4 5 6 7 8 9 10 11 12 13 14 15 16 17 18 19 20 21 22 23 24 25 26 27 28 29 30
000
FTUS46 KOTX 021738
TAFMWH
TAF
KMWH 021738Z 0218/0318 VRB05KT P6SM FEW150
      TEMPO 0218/0220 6SM FU
     FM022100 24008KT P6SM SCT140
     FM030500 31005KT 6SM FU BKN025 BKN200=

USA.gov is the U.S. government's official web portal to all federal, state and local government web resources and services.